sensor_id;sensor_type;location;lat;lon;timestamp;P1;durP1;ratioP1;P2;durP2;ratioP2
7835;SDS011;3963;42.658;23.298;2022-10-31T00:00:46;4.97;;;3.50;;
7835;SDS011;3963;42.658;23.298;2022-10-31T00:03:13;7.00;;;3.57;;
7835;SDS011;3963;42.658;23.298;2022-10-31T00:05:41;6.13;;;4.00;;
7835;SDS011;3963;42.658;23.298;2022-10-31T00:08:09;5.43;;;3.10;;
7835;SDS011;3963;42.658;23.298;2022-10-31T00:10:37;7.40;;;3.53;;
7835;SDS011;3963;42.658;23.298;2022-10-31T00:13:04;6.27;;;3.20;;
7835;SDS011;3963;42.658;23.298;2022-10-31T00:15:32;7.80;;;3.77;;
7835;SDS011;3963;42.658;23.298;2022-10-31T00:18:00;6.27;;;3.60;;
7835;SDS011;3963;42.658;23.298;2022-10-31T00:20:27;6.53;;;3.57;;
7835;SDS011;3963;42.658;23.298;2022-10-31T00:22:57;4.43;;;3.20;;
7835;SDS011;3963;42.658;23.298;2022-10-31T00:25:24;5.80;;;3.77;;
7835;SDS011;3963;42.658;23.298;2022-10-31T00:27:51;8.93;;;3.40;;
7835;SDS011;3963;42.658;23.298;2022-10-31T00:30:18;7.20;;;3.53;;
7835;SDS011;3963;42.658;23.298;2022-10-31T00:32:45;6.67;;;3.57;;
7835;SDS011;3963;42.658;23.298;2022-10-31T00:35:13;7.10;;;3.60;;
7835;SDS011;3963;42.658;23.298;2022-10-31T00:37:40;8.13;;;3.70;;
7835;SDS011;3963;42.658;23.298;2022-10-31T00:40:07;5.57;;;3.10;;
7835;SDS011;3963;42.658;23.298;2022-10-31T00:42:35;5.57;;;3.37;;
7835;SDS011;3963;42.658;23.298;2022-10-31T00:45:02;5.33;;;3.63;;
7835;SDS011;3963;42.658;23.298;2022-10-31T00:47:29;7.40;;;3.40;;
7835;SDS011;3963;42.658;23.298;2022-10-31T00:49:56;6.60;;;3.93;;
7835;SDS011;3963;42.658;23.298;2022-10-31T00:52:24;7.47;;;3.20;;
7835;SDS011;3963;42.658;23.298;2022-10-31T00:54:51;4.67;;;3.03;;
7835;SDS011;3963;42.658;23.298;2022-10-31T00:57:18;6.17;;;3.50;;
7835;SDS011;3963;42.658;23.298;2022-10-31T00:59:45;5.50;;;3.57;;
7835;SDS011;3963;42.658;23.298;2022-10-31T01:02:12;6.83;;;3.60;;
7835;SDS011;3963;42.658;23.298;2022-10-31T01:04:39;6.87;;;3.47;;
7835;SDS011;3963;42.658;23.298;2022-10-31T01:07:06;4.80;;;3.10;;
7835;SDS011;3963;42.658;23.298;2022-10-31T01:09:34;5.47;;;3.50;;
7835;SDS011;3963;42.658;23.298;2022-10-31T01:12:01;8.70;;;3.87;;
7835;SDS011;3963;42.658;23.298;2022-10-31T01:14:28;7.07;;;3.53;;
7835;SDS011;3963;42.658;23.298;2022-10-31T01:16:54;7.47;;;3.93;;
7835;SDS011;3963;42.658;23.298;2022-10-31T01:19:21;5.20;;;3.43;;
7835;SDS011;3963;42.658;23.298;2022-10-31T01:21:48;5.93;;;3.73;;
7835;SDS011;3963;42.658;23.298;2022-10-31T01:24:15;5.27;;;3.33;;
7835;SDS011;3963;42.658;23.298;2022-10-31T01:26:43;5.50;;;3.50;;
7835;SDS011;3963;42.658;23.298;2022-10-31T01:29:10;8.23;;;3.80;;
7835;SDS011;3963;42.658;23.298;2022-10-31T01:31:37;5.20;;;3.50;;
7835;SDS011;3963;42.658;23.298;2022-10-31T01:34:05;6.97;;;3.33;;
7835;SDS011;3963;42.658;23.298;2022-10-31T01:36:33;6.20;;;3.83;;
7835;SDS011;3963;42.658;23.298;2022-10-31T01:39:03;6.10;;;4.03;;
7835;SDS011;3963;42.658;23.298;2022-10-31T01:41:32;6.37;;;4.13;;
7835;SDS011;3963;42.658;23.298;2022-10-31T01:44:03;6.20;;;3.83;;
7835;SDS011;3963;42.658;23.298;2022-10-31T01:47:07;7.00;;;4.10;;
7835;SDS011;3963;42.658;23.298;2022-10-31T01:49:40;7.90;;;4.17;;
7835;SDS011;3963;42.658;23.298;2022-10-31T01:52:10;6.90;;;4.20;;
7835;SDS011;3963;42.658;23.298;2022-10-31T01:54:44;5.60;;;4.17;;
7835;SDS011;3963;42.658;23.298;2022-10-31T01:57:15;8.60;;;4.03;;
7835;SDS011;3963;42.658;23.298;2022-10-31T01:59:48;8.50;;;4.83;;
7835;SDS011;3963;42.658;23.298;2022-10-31T02:02:17;11.43;;;4.20;;
7835;SDS011;3963;42.658;23.298;2022-10-31T02:04:45;6.00;;;4.37;;
7835;SDS011;3963;42.658;23.298;2022-10-31T02:07:14;5.93;;;4.07;;
7835;SDS011;3963;42.658;23.298;2022-10-31T02:09:43;5.80;;;4.00;;
7835;SDS011;3963;42.658;23.298;2022-10-31T02:12:12;9.00;;;5.83;;
7835;SDS011;3963;42.658;23.298;2022-10-31T02:14:40;8.67;;;4.90;;
7835;SDS011;3963;42.658;23.298;2022-10-31T02:17:09;7.97;;;4.27;;
7835;SDS011;3963;42.658;23.298;2022-10-31T02:19:38;8.93;;;4.50;;
7835;SDS011;3963;42.658;23.298;2022-10-31T02:22:12;6.23;;;4.63;;
7835;SDS011;3963;42.658;23.298;2022-10-31T02:24:52;7.40;;;4.63;;
7835;SDS011;3963;42.658;23.298;2022-10-31T02:27:37;7.20;;;4.50;;
7835;SDS011;3963;42.658;23.298;2022-10-31T02:30:18;10.13;;;5.17;;
7835;SDS011;3963;42.658;23.298;2022-10-31T02:32:52;6.07;;;4.60;;
7835;SDS011;3963;42.658;23.298;2022-10-31T02:38:22;9.93;;;4.83;;
7835;SDS011;3963;42.658;23.298;2022-10-31T02:40:57;7.93;;;4.50;;
7835;SDS011;3963;42.658;23.298;2022-10-31T02:43:32;6.53;;;5.17;;
7835;SDS011;3963;42.658;23.298;2022-10-31T02:46:07;9.23;;;4.87;;
7835;SDS011;3963;42.658;23.298;2022-10-31T02:48:41;6.70;;;5.13;;
7835;SDS011;3963;42.658;23.298;2022-10-31T02:51:10;7.07;;;4.90;;
7835;SDS011;3963;42.658;23.298;2022-10-31T02:53:38;5.67;;;4.30;;
7835;SDS011;3963;42.658;23.298;2022-10-31T02:56:06;6.77;;;4.70;;
7835;SDS011;3963;42.658;23.298;2022-10-31T02:58:38;7.50;;;5.10;;
7835;SDS011;3963;42.658;23.298;2022-10-31T03:01:13;9.63;;;5.60;;
7835;SDS011;3963;42.658;23.298;2022-10-31T03:06:59;7.30;;;4.47;;
7835;SDS011;3963;42.658;23.298;2022-10-31T03:09:33;6.83;;;4.63;;
7835;SDS011;3963;42.658;23.298;2022-10-31T03:12:09;9.87;;;5.20;;
7835;SDS011;3963;42.658;23.298;2022-10-31T03:14:41;10.40;;;5.23;;
7835;SDS011;3963;42.658;23.298;2022-10-31T03:17:12;10.40;;;5.20;;
7835;SDS011;3963;42.658;23.298;2022-10-31T03:19:47;6.47;;;4.63;;
7835;SDS011;3963;42.658;23.298;2022-10-31T03:22:16;8.23;;;5.33;;
7835;SDS011;3963;42.658;23.298;2022-10-31T03:24:46;10.30;;;5.30;;
7835;SDS011;3963;42.658;23.298;2022-10-31T03:27:15;10.50;;;4.93;;
7835;SDS011;3963;42.658;23.298;2022-10-31T03:29:45;10.67;;;5.20;;
7835;SDS011;3963;42.658;23.298;2022-10-31T03:32:16;8.93;;;5.53;;
7835;SDS011;3963;42.658;23.298;2022-10-31T03:34:48;6.87;;;5.10;;
7835;SDS011;3963;42.658;23.298;2022-10-31T03:37:17;5.80;;;4.50;;
7835;SDS011;3963;42.658;23.298;2022-10-31T03:39:46;10.93;;;5.77;;
7835;SDS011;3963;42.658;23.298;2022-10-31T03:42:16;8.50;;;5.57;;
7835;SDS011;3963;42.658;23.298;2022-10-31T03:44:48;8.30;;;5.23;;
7835;SDS011;3963;42.658;23.298;2022-10-31T03:47:19;10.07;;;4.77;;
7835;SDS011;3963;42.658;23.298;2022-10-31T03:49:47;8.77;;;4.90;;
7835;SDS011;3963;42.658;23.298;2022-10-31T03:52:17;7.60;;;4.90;;
7835;SDS011;3963;42.658;23.298;2022-10-31T03:54:52;9.70;;;4.83;;
7835;SDS011;3963;42.658;23.298;2022-10-31T03:57:24;8.80;;;6.03;;
7835;SDS011;3963;42.658;23.298;2022-10-31T03:59:57;8.27;;;5.20;;
7835;SDS011;3963;42.658;23.298;2022-10-31T04:02:28;7.47;;;5.23;;
7835;SDS011;3963;42.658;23.298;2022-10-31T04:05:01;11.70;;;5.37;;
7835;SDS011;3963;42.658;23.298;2022-10-31T04:07:30;12.53;;;6.07;;
7835;SDS011;3963;42.658;23.298;2022-10-31T04:10:02;10.33;;;5.53;;
7835;SDS011;3963;42.658;23.298;2022-10-31T04:12:33;9.87;;;5.83;;
7835;SDS011;3963;42.658;23.298;2022-10-31T04:15:01;11.60;;;6.47;;
7835;SDS011;3963;42.658;23.298;2022-10-31T04:17:31;8.93;;;5.17;;
7835;SDS011;3963;42.658;23.298;2022-10-31T04:20:03;8.33;;;5.33;;
7835;SDS011;3963;42.658;23.298;2022-10-31T04:22:31;8.87;;;5.63;;
7835;SDS011;3963;42.658;23.298;2022-10-31T04:24:58;9.00;;;5.67;;
7835;SDS011;3963;42.658;23.298;2022-10-31T04:27:25;9.13;;;5.70;;
7835;SDS011;3963;42.658;23.298;2022-10-31T04:29:51;10.17;;;6.47;;
7835;SDS011;3963;42.658;23.298;2022-10-31T04:32:18;9.03;;;6.20;;
7835;SDS011;3963;42.658;23.298;2022-10-31T04:34:45;13.30;;;6.13;;
7835;SDS011;3963;42.658;23.298;2022-10-31T04:37:13;10.87;;;7.07;;
7835;SDS011;3963;42.658;23.298;2022-10-31T04:39:40;11.00;;;6.67;;
7835;SDS011;3963;42.658;23.298;2022-10-31T04:42:06;10.57;;;6.07;;
7835;SDS011;3963;42.658;23.298;2022-10-31T04:44:33;10.40;;;6.13;;
7835;SDS011;3963;42.658;23.298;2022-10-31T04:47:00;11.80;;;5.60;;
7835;SDS011;3963;42.658;23.298;2022-10-31T04:49:27;17.43;;;6.70;;
7835;SDS011;3963;42.658;23.298;2022-10-31T04:51:53;11.63;;;6.80;;
7835;SDS011;3963;42.658;23.298;2022-10-31T04:54:22;8.20;;;6.50;;
7835;SDS011;3963;42.658;23.298;2022-10-31T04:56:48;9.93;;;7.13;;
7835;SDS011;3963;42.658;23.298;2022-10-31T04:59:15;14.50;;;7.23;;
7835;SDS011;3963;42.658;23.298;2022-10-31T05:01:42;16.37;;;8.10;;
7835;SDS011;3963;42.658;23.298;2022-10-31T05:04:09;11.70;;;8.13;;
7835;SDS011;3963;42.658;23.298;2022-10-31T05:06:36;12.30;;;7.23;;
7835;SDS011;3963;42.658;23.298;2022-10-31T05:09:03;12.83;;;8.60;;
7835;SDS011;3963;42.658;23.298;2022-10-31T05:11:32;19.10;;;8.00;;
7835;SDS011;3963;42.658;23.298;2022-10-31T05:13:58;10.43;;;7.10;;
7835;SDS011;3963;42.658;23.298;2022-10-31T05:16:25;16.50;;;8.40;;
7835;SDS011;3963;42.658;23.298;2022-10-31T05:18:52;14.87;;;7.40;;
7835;SDS011;3963;42.658;23.298;2022-10-31T05:21:19;13.57;;;8.07;;
7835;SDS011;3963;42.658;23.298;2022-10-31T05:23:46;12.63;;;7.37;;
7835;SDS011;3963;42.658;23.298;2022-10-31T05:26:13;13.03;;;7.70;;
7835;SDS011;3963;42.658;23.298;2022-10-31T05:28:41;13.53;;;7.07;;
7835;SDS011;3963;42.658;23.298;2022-10-31T05:31:08;15.57;;;7.53;;
7835;SDS011;3963;42.658;23.298;2022-10-31T05:33:35;14.90;;;8.40;;
7835;SDS011;3963;42.658;23.298;2022-10-31T05:36:03;13.17;;;8.57;;
7835;SDS011;3963;42.658;23.298;2022-10-31T05:38:30;15.80;;;8.47;;
7835;SDS011;3963;42.658;23.298;2022-10-31T05:40:57;18.07;;;9.73;;
7835;SDS011;3963;42.658;23.298;2022-10-31T05:43:25;16.97;;;9.07;;
7835;SDS011;3963;42.658;23.298;2022-10-31T05:45:53;14.60;;;8.70;;
7835;SDS011;3963;42.658;23.298;2022-10-31T05:48:20;14.97;;;8.73;;
7835;SDS011;3963;42.658;23.298;2022-10-31T05:50:48;16.90;;;8.33;;
7835;SDS011;3963;42.658;23.298;2022-10-31T05:53:15;16.20;;;9.03;;
7835;SDS011;3963;42.658;23.298;2022-10-31T05:55:42;20.27;;;9.23;;
7835;SDS011;3963;42.658;23.298;2022-10-31T05:58:09;13.70;;;8.67;;
7835;SDS011;3963;42.658;23.298;2022-10-31T06:00:37;13.60;;;8.73;;
7835;SDS011;3963;42.658;23.298;2022-10-31T06:03:06;17.57;;;9.80;;
7835;SDS011;3963;42.658;23.298;2022-10-31T06:05:35;20.00;;;9.67;;
7835;SDS011;3963;42.658;23.298;2022-10-31T06:08:01;17.17;;;8.83;;
7835;SDS011;3963;42.658;23.298;2022-10-31T06:10:28;18.30;;;9.83;;
7835;SDS011;3963;42.658;23.298;2022-10-31T06:12:55;16.13;;;10.30;;
7835;SDS011;3963;42.658;23.298;2022-10-31T06:15:22;20.10;;;10.93;;
7835;SDS011;3963;42.658;23.298;2022-10-31T06:17:57;21.27;;;10.03;;
7835;SDS011;3963;42.658;23.298;2022-10-31T06:20:26;16.37;;;9.97;;
7835;SDS011;3963;42.658;23.298;2022-10-31T06:22:53;14.27;;;9.60;;
7835;SDS011;3963;42.658;23.298;2022-10-31T06:25:19;13.90;;;10.17;;
7835;SDS011;3963;42.658;23.298;2022-10-31T06:27:46;22.43;;;10.87;;
7835;SDS011;3963;42.658;23.298;2022-10-31T06:30:13;19.10;;;11.03;;
7835;SDS011;3963;42.658;23.298;2022-10-31T06:32:41;20.47;;;11.20;;
7835;SDS011;3963;42.658;23.298;2022-10-31T06:35:08;17.80;;;11.53;;
7835;SDS011;3963;42.658;23.298;2022-10-31T06:37:36;17.70;;;9.97;;
7835;SDS011;3963;42.658;23.298;2022-10-31T06:40:04;19.07;;;11.37;;
7835;SDS011;3963;42.658;23.298;2022-10-31T06:42:31;15.07;;;10.60;;
7835;SDS011;3963;42.658;23.298;2022-10-31T06:44:58;17.60;;;11.00;;
7835;SDS011;3963;42.658;23.298;2022-10-31T06:47:25;15.50;;;11.13;;
7835;SDS011;3963;42.658;23.298;2022-10-31T06:49:52;19.60;;;11.73;;
7835;SDS011;3963;42.658;23.298;2022-10-31T06:52:19;17.87;;;11.83;;
7835;SDS011;3963;42.658;23.298;2022-10-31T06:54:47;19.07;;;12.03;;
7835;SDS011;3963;42.658;23.298;2022-10-31T06:57:14;23.40;;;13.27;;
7835;SDS011;3963;42.658;23.298;2022-10-31T06:59:40;20.43;;;12.80;;
7835;SDS011;3963;42.658;23.298;2022-10-31T07:02:08;20.77;;;12.43;;
7835;SDS011;3963;42.658;23.298;2022-10-31T07:04:35;20.90;;;12.77;;
7835;SDS011;3963;42.658;23.298;2022-10-31T07:07:02;21.50;;;11.60;;
7835;SDS011;3963;42.658;23.298;2022-10-31T07:09:29;17.23;;;11.73;;
7835;SDS011;3963;42.658;23.298;2022-10-31T07:11:57;20.77;;;12.77;;
7835;SDS011;3963;42.658;23.298;2022-10-31T07:14:24;19.10;;;12.10;;
7835;SDS011;3963;42.658;23.298;2022-10-31T07:16:51;19.50;;;12.20;;
7835;SDS011;3963;42.658;23.298;2022-10-31T07:19:17;17.27;;;12.10;;
7835;SDS011;3963;42.658;23.298;2022-10-31T07:21:44;18.57;;;12.23;;
7835;SDS011;3963;42.658;23.298;2022-10-31T07:24:11;22.00;;;12.27;;
7835;SDS011;3963;42.658;23.298;2022-10-31T07:26:38;20.10;;;12.80;;
7835;SDS011;3963;42.658;23.298;2022-10-31T07:29:06;24.83;;;13.47;;
7835;SDS011;3963;42.658;23.298;2022-10-31T07:31:32;28.73;;;13.40;;
7835;SDS011;3963;42.658;23.298;2022-10-31T07:33:59;21.80;;;13.30;;
7835;SDS011;3963;42.658;23.298;2022-10-31T07:36:26;25.87;;;13.67;;
7835;SDS011;3963;42.658;23.298;2022-10-31T07:38:53;22.90;;;13.67;;
7835;SDS011;3963;42.658;23.298;2022-10-31T07:41:20;22.87;;;13.87;;
7835;SDS011;3963;42.658;23.298;2022-10-31T07:43:47;23.60;;;12.77;;
7835;SDS011;3963;42.658;23.298;2022-10-31T07:46:15;21.73;;;12.93;;
7835;SDS011;3963;42.658;23.298;2022-10-31T07:48:42;22.53;;;12.93;;
7835;SDS011;3963;42.658;23.298;2022-10-31T07:51:09;22.13;;;13.37;;
7835;SDS011;3963;42.658;23.298;2022-10-31T07:53:36;21.07;;;12.47;;
7835;SDS011;3963;42.658;23.298;2022-10-31T07:56:03;24.20;;;13.27;;
7835;SDS011;3963;42.658;23.298;2022-10-31T07:58:30;18.53;;;12.13;;
7835;SDS011;3963;42.658;23.298;2022-10-31T08:00:57;20.23;;;12.90;;
7835;SDS011;3963;42.658;23.298;2022-10-31T08:03:25;21.40;;;12.83;;
7835;SDS011;3963;42.658;23.298;2022-10-31T08:05:52;21.33;;;13.00;;
7835;SDS011;3963;42.658;23.298;2022-10-31T08:08:18;19.70;;;13.13;;
7835;SDS011;3963;42.658;23.298;2022-10-31T08:10:45;16.93;;;12.03;;
7835;SDS011;3963;42.658;23.298;2022-10-31T08:13:12;17.57;;;11.10;;
7835;SDS011;3963;42.658;23.298;2022-10-31T08:15:40;23.43;;;12.70;;
7835;SDS011;3963;42.658;23.298;2022-10-31T08:18:10;19.00;;;11.37;;
7835;SDS011;3963;42.658;23.298;2022-10-31T08:20:39;18.30;;;11.07;;
7835;SDS011;3963;42.658;23.298;2022-10-31T08:23:08;19.80;;;11.27;;
7835;SDS011;3963;42.658;23.298;2022-10-31T08:25:36;17.63;;;11.00;;
7835;SDS011;3963;42.658;23.298;2022-10-31T08:28:03;16.93;;;11.23;;
7835;SDS011;3963;42.658;23.298;2022-10-31T08:30:31;24.53;;;12.03;;
7835;SDS011;3963;42.658;23.298;2022-10-31T08:33:00;18.60;;;11.97;;
7835;SDS011;3963;42.658;23.298;2022-10-31T08:35:28;21.83;;;11.67;;
7835;SDS011;3963;42.658;23.298;2022-10-31T08:37:56;18.27;;;11.27;;
7835;SDS011;3963;42.658;23.298;2022-10-31T08:40:24;18.80;;;11.30;;
7835;SDS011;3963;42.658;23.298;2022-10-31T08:42:58;20.07;;;11.33;;
7835;SDS011;3963;42.658;23.298;2022-10-31T08:45:26;14.43;;;10.47;;
7835;SDS011;3963;42.658;23.298;2022-10-31T08:47:56;15.87;;;9.53;;
7835;SDS011;3963;42.658;23.298;2022-10-31T08:50:24;15.37;;;9.67;;
7835;SDS011;3963;42.658;23.298;2022-10-31T08:52:52;17.50;;;10.97;;
7835;SDS011;3963;42.658;23.298;2022-10-31T08:55:20;16.60;;;11.23;;
7835;SDS011;3963;42.658;23.298;2022-10-31T08:57:47;20.83;;;9.53;;
7835;SDS011;3963;42.658;23.298;2022-10-31T09:00:14;18.17;;;10.30;;
7835;SDS011;3963;42.658;23.298;2022-10-31T09:02:41;12.57;;;8.37;;
7835;SDS011;3963;42.658;23.298;2022-10-31T09:05:07;13.70;;;8.80;;
7835;SDS011;3963;42.658;23.298;2022-10-31T09:07:34;13.87;;;9.30;;
7835;SDS011;3963;42.658;23.298;2022-10-31T09:10:01;12.93;;;8.80;;
7835;SDS011;3963;42.658;23.298;2022-10-31T09:12:29;14.40;;;8.80;;
7835;SDS011;3963;42.658;23.298;2022-10-31T09:14:56;13.50;;;8.27;;
7835;SDS011;3963;42.658;23.298;2022-10-31T09:17:23;13.97;;;7.23;;
7835;SDS011;3963;42.658;23.298;2022-10-31T09:19:51;15.60;;;7.60;;
7835;SDS011;3963;42.658;23.298;2022-10-31T09:22:18;15.43;;;8.13;;
7835;SDS011;3963;42.658;23.298;2022-10-31T09:24:45;13.53;;;7.87;;
7835;SDS011;3963;42.658;23.298;2022-10-31T09:27:12;15.77;;;8.37;;
7835;SDS011;3963;42.658;23.298;2022-10-31T09:29:40;14.00;;;8.53;;
7835;SDS011;3963;42.658;23.298;2022-10-31T09:32:07;15.30;;;8.40;;
7835;SDS011;3963;42.658;23.298;2022-10-31T09:34:33;12.53;;;8.20;;
7835;SDS011;3963;42.658;23.298;2022-10-31T09:37:00;14.67;;;7.60;;
7835;SDS011;3963;42.658;23.298;2022-10-31T09:39:27;11.37;;;7.87;;
7835;SDS011;3963;42.658;23.298;2022-10-31T09:42:00;14.37;;;7.40;;
7835;SDS011;3963;42.658;23.298;2022-10-31T09:44:39;19.60;;;8.37;;
7835;SDS011;3963;42.658;23.298;2022-10-31T09:47:17;14.50;;;7.53;;
7835;SDS011;3963;42.658;23.298;2022-10-31T09:49:58;18.00;;;8.10;;
7835;SDS011;3963;42.658;23.298;2022-10-31T09:52:38;9.53;;;6.40;;
7835;SDS011;3963;42.658;23.298;2022-10-31T09:55:08;11.73;;;7.27;;
7835;SDS011;3963;42.658;23.298;2022-10-31T09:57:42;17.60;;;7.80;;
7835;SDS011;3963;42.658;23.298;2022-10-31T10:00:14;12.73;;;6.97;;
7835;SDS011;3963;42.658;23.298;2022-10-31T10:02:44;10.38;;;6.75;;
7835;SDS011;3963;42.658;23.298;2022-10-31T10:05:17;11.63;;;6.22;;
7835;SDS011;3963;42.658;23.298;2022-10-31T10:07:49;10.98;;;4.97;;
7835;SDS011;3963;42.658;23.298;2022-10-31T10:10:24;12.75;;;6.22;;
7835;SDS011;3963;42.658;23.298;2022-10-31T10:13:12;14.63;;;6.35;;
7835;SDS011;3963;42.658;23.298;2022-10-31T10:15:54;10.73;;;5.53;;
7835;SDS011;3963;42.658;23.298;2022-10-31T10:18:32;11.88;;;6.18;;
7835;SDS011;3963;42.658;23.298;2022-10-31T10:21:11;10.52;;;6.72;;
7835;SDS011;3963;42.658;23.298;2022-10-31T10:23:52;12.63;;;5.85;;
7835;SDS011;3963;42.658;23.298;2022-10-31T10:26:28;8.77;;;5.30;;
7835;SDS011;3963;42.658;23.298;2022-10-31T10:29:01;11.52;;;4.10;;
7835;SDS011;3963;42.658;23.298;2022-10-31T10:31:37;11.18;;;5.05;;
7835;SDS011;3963;42.658;23.298;2022-10-31T10:34:12;11.33;;;5.17;;
7835;SDS011;3963;42.658;23.298;2022-10-31T10:36:44;10.33;;;5.17;;
7835;SDS011;3963;42.658;23.298;2022-10-31T10:39:17;13.17;;;5.07;;
7835;SDS011;3963;42.658;23.298;2022-10-31T10:41:47;10.45;;;4.95;;
7835;SDS011;3963;42.658;23.298;2022-10-31T10:44:29;8.20;;;5.05;;
7835;SDS011;3963;42.658;23.298;2022-10-31T10:47:15;8.40;;;4.07;;
7835;SDS011;3963;42.658;23.298;2022-10-31T10:49:59;5.63;;;3.30;;
7835;SDS011;3963;42.658;23.298;2022-10-31T10:52:31;9.95;;;3.53;;
7835;SDS011;3963;42.658;23.298;2022-10-31T10:55:09;7.03;;;3.33;;
7835;SDS011;3963;42.658;23.298;2022-10-31T10:57:46;5.70;;;3.42;;
7835;SDS011;3963;42.658;23.298;2022-10-31T11:00:20;5.97;;;3.10;;
7835;SDS011;3963;42.658;23.298;2022-10-31T11:02:50;4.60;;;3.28;;
7835;SDS011;3963;42.658;23.298;2022-10-31T11:05:22;13.10;;;4.75;;
7835;SDS011;3963;42.658;23.298;2022-10-31T11:07:51;7.07;;;3.33;;
7835;SDS011;3963;42.658;23.298;2022-10-31T11:10:18;8.57;;;3.08;;
7835;SDS011;3963;42.658;23.298;2022-10-31T11:12:46;7.60;;;3.63;;
7835;SDS011;3963;42.658;23.298;2022-10-31T11:15:26;9.25;;;3.47;;
7835;SDS011;3963;42.658;23.298;2022-10-31T11:17:55;7.25;;;3.28;;
7835;SDS011;3963;42.658;23.298;2022-10-31T11:20:28;7.32;;;3.38;;
7835;SDS011;3963;42.658;23.298;2022-10-31T11:23:01;8.38;;;3.17;;
7835;SDS011;3963;42.658;23.298;2022-10-31T11:25:47;6.93;;;3.38;;
7835;SDS011;3963;42.658;23.298;2022-10-31T11:28:15;7.80;;;3.50;;
7835;SDS011;3963;42.658;23.298;2022-10-31T11:30:43;5.45;;;3.05;;
7835;SDS011;3963;42.658;23.298;2022-10-31T11:33:16;8.60;;;3.43;;
7835;SDS011;3963;42.658;23.298;2022-10-31T11:35:45;5.63;;;3.00;;
7835;SDS011;3963;42.658;23.298;2022-10-31T11:38:15;6.80;;;3.63;;
7835;SDS011;3963;42.658;23.298;2022-10-31T11:40:51;8.20;;;3.90;;
7835;SDS011;3963;42.658;23.298;2022-10-31T11:43:19;10.20;;;3.70;;
7835;SDS011;3963;42.658;23.298;2022-10-31T11:45:46;12.37;;;3.80;;
7835;SDS011;3963;42.658;23.298;2022-10-31T11:48:16;7.07;;;3.63;;
7835;SDS011;3963;42.658;23.298;2022-10-31T11:50:47;12.77;;;5.00;;
7835;SDS011;3963;42.658;23.298;2022-10-31T11:53:17;7.53;;;3.37;;
7835;SDS011;3963;42.658;23.298;2022-10-31T11:55:46;10.37;;;4.40;;
7835;SDS011;3963;42.658;23.298;2022-10-31T11:58:26;8.73;;;3.70;;
7835;SDS011;3963;42.658;23.298;2022-10-31T12:00:53;8.90;;;4.20;;
7835;SDS011;3963;42.658;23.298;2022-10-31T12:03:28;9.87;;;4.33;;
7835;SDS011;3963;42.658;23.298;2022-10-31T12:06:12;8.17;;;4.37;;
7835;SDS011;3963;42.658;23.298;2022-10-31T12:08:44;10.53;;;5.30;;
7835;SDS011;3963;42.658;23.298;2022-10-31T12:11:17;29.40;;;24.40;;
7835;SDS011;3963;42.658;23.298;2022-10-31T12:14:00;7.60;;;4.97;;
7835;SDS011;3963;42.658;23.298;2022-10-31T12:16:36;9.80;;;4.20;;
7835;SDS011;3963;42.658;23.298;2022-10-31T12:19:12;8.73;;;3.73;;
7835;SDS011;3963;42.658;23.298;2022-10-31T12:21:48;9.80;;;4.00;;
7835;SDS011;3963;42.658;23.298;2022-10-31T12:24:31;6.10;;;3.50;;
7835;SDS011;3963;42.658;23.298;2022-10-31T12:27:11;7.47;;;3.80;;
7835;SDS011;3963;42.658;23.298;2022-10-31T12:30:00;7.10;;;3.40;;
7835;SDS011;3963;42.658;23.298;2022-10-31T12:32:40;8.87;;;3.60;;
7835;SDS011;3963;42.658;23.298;2022-10-31T12:35:20;4.67;;;3.27;;
7835;SDS011;3963;42.658;23.298;2022-10-31T12:38:07;10.83;;;3.70;;
7835;SDS011;3963;42.658;23.298;2022-10-31T12:40:56;7.10;;;3.73;;
7835;SDS011;3963;42.658;23.298;2022-10-31T12:43:36;9.30;;;3.97;;
7835;SDS011;3963;42.658;23.298;2022-10-31T12:46:11;11.87;;;3.73;;
7835;SDS011;3963;42.658;23.298;2022-10-31T12:51:43;15.40;;;4.20;;
7835;SDS011;3963;42.658;23.298;2022-10-31T12:54:30;6.63;;;3.63;;
7835;SDS011;3963;42.658;23.298;2022-10-31T12:57:13;7.33;;;3.60;;
7835;SDS011;3963;42.658;23.298;2022-10-31T12:59:49;14.83;;;5.00;;
7835;SDS011;3963;42.658;23.298;2022-10-31T13:02:20;7.90;;;3.63;;
7835;SDS011;3963;42.658;23.298;2022-10-31T13:04:53;6.10;;;3.50;;
7835;SDS011;3963;42.658;23.298;2022-10-31T13:07:25;8.73;;;3.80;;
7835;SDS011;3963;42.658;23.298;2022-10-31T13:09:57;6.03;;;3.50;;
7835;SDS011;3963;42.658;23.298;2022-10-31T13:12:28;10.87;;;3.60;;
7835;SDS011;3963;42.658;23.298;2022-10-31T13:14:57;6.83;;;3.83;;
7835;SDS011;3963;42.658;23.298;2022-10-31T13:17:29;9.60;;;3.43;;
7835;SDS011;3963;42.658;23.298;2022-10-31T13:20:12;9.43;;;4.30;;
7835;SDS011;3963;42.658;23.298;2022-10-31T13:22:45;9.30;;;4.13;;
7835;SDS011;3963;42.658;23.298;2022-10-31T13:25:16;7.67;;;3.80;;
7835;SDS011;3963;42.658;23.298;2022-10-31T13:27:48;14.13;;;4.07;;
7835;SDS011;3963;42.658;23.298;2022-10-31T13:30:20;6.40;;;3.37;;
7835;SDS011;3963;42.658;23.298;2022-10-31T13:32:49;9.17;;;3.97;;
7835;SDS011;3963;42.658;23.298;2022-10-31T13:35:21;6.47;;;3.93;;
7835;SDS011;3963;42.658;23.298;2022-10-31T13:37:58;11.60;;;4.73;;
7835;SDS011;3963;42.658;23.298;2022-10-31T13:40:37;7.87;;;3.47;;
7835;SDS011;3963;42.658;23.298;2022-10-31T13:43:12;6.93;;;3.50;;
7835;SDS011;3963;42.658;23.298;2022-10-31T13:45:48;7.47;;;3.50;;
7835;SDS011;3963;42.658;23.298;2022-10-31T13:51:07;7.60;;;4.00;;
7835;SDS011;3963;42.658;23.298;2022-10-31T13:53:37;12.63;;;3.83;;
7835;SDS011;3963;42.658;23.298;2022-10-31T13:58:59;8.63;;;4.43;;
7835;SDS011;3963;42.658;23.298;2022-10-31T14:01:29;9.57;;;3.63;;
7835;SDS011;3963;42.658;23.298;2022-10-31T14:03:59;7.90;;;3.20;;
7835;SDS011;3963;42.658;23.298;2022-10-31T14:06:37;9.73;;;4.50;;
7835;SDS011;3963;42.658;23.298;2022-10-31T14:09:17;7.97;;;3.50;;
7835;SDS011;3963;42.658;23.298;2022-10-31T14:11:46;8.87;;;3.97;;
7835;SDS011;3963;42.658;23.298;2022-10-31T14:14:14;6.77;;;3.17;;
7835;SDS011;3963;42.658;23.298;2022-10-31T14:16:42;8.67;;;3.70;;
7835;SDS011;3963;42.658;23.298;2022-10-31T14:19:15;9.17;;;4.37;;
7835;SDS011;3963;42.658;23.298;2022-10-31T14:21:45;9.37;;;3.60;;
7835;SDS011;3963;42.658;23.298;2022-10-31T14:24:13;6.27;;;3.40;;
7835;SDS011;3963;42.658;23.298;2022-10-31T14:26:52;10.47;;;3.43;;
7835;SDS011;3963;42.658;23.298;2022-10-31T14:29:24;9.03;;;3.50;;
7835;SDS011;3963;42.658;23.298;2022-10-31T14:31:54;6.83;;;3.40;;
7835;SDS011;3963;42.658;23.298;2022-10-31T14:34:24;12.13;;;3.63;;
7835;SDS011;3963;42.658;23.298;2022-10-31T14:37:01;10.70;;;3.90;;
7835;SDS011;3963;42.658;23.298;2022-10-31T14:39:41;9.77;;;3.90;;
7835;SDS011;3963;42.658;23.298;2022-10-31T14:42:25;16.83;;;4.17;;
7835;SDS011;3963;42.658;23.298;2022-10-31T14:45:10;13.47;;;4.50;;
7835;SDS011;3963;42.658;23.298;2022-10-31T14:47:47;13.83;;;4.33;;
7835;SDS011;3963;42.658;23.298;2022-10-31T14:50:24;17.13;;;4.67;;
7835;SDS011;3963;42.658;23.298;2022-10-31T14:53:04;13.93;;;4.67;;
7835;SDS011;3963;42.658;23.298;2022-10-31T14:55:32;15.40;;;4.30;;
7835;SDS011;3963;42.658;23.298;2022-10-31T14:58:01;14.10;;;4.63;;
7835;SDS011;3963;42.658;23.298;2022-10-31T15:00:32;26.07;;;6.93;;
7835;SDS011;3963;42.658;23.298;2022-10-31T15:03:05;20.77;;;4.63;;
7835;SDS011;3963;42.658;23.298;2022-10-31T15:05:41;23.43;;;5.87;;
7835;SDS011;3963;42.658;23.298;2022-10-31T15:08:13;17.13;;;5.33;;
7835;SDS011;3963;42.658;23.298;2022-10-31T15:10:51;17.97;;;6.57;;
7835;SDS011;3963;42.658;23.298;2022-10-31T15:13:20;20.80;;;6.57;;
7835;SDS011;3963;42.658;23.298;2022-10-31T15:15:48;11.60;;;5.30;;
7835;SDS011;3963;42.658;23.298;2022-10-31T15:18:16;14.47;;;5.10;;
7835;SDS011;3963;42.658;23.298;2022-10-31T15:20:46;13.50;;;5.37;;
7835;SDS011;3963;42.658;23.298;2022-10-31T15:23:15;12.27;;;6.30;;
7835;SDS011;3963;42.658;23.298;2022-10-31T15:25:46;14.87;;;4.27;;